createdAt,value
2023-04-07T00:00:30.871Z,95255.47
2023-04-07T00:02:57.646Z,95256.03
2023-04-07T00:05:24.338Z,95250.59
2023-04-07T00:07:56.450Z,95254.31
2023-04-07T00:10:25.239Z,95259.84
2023-04-07T00:12:52.291Z,95244.16
2023-04-07T00:15:18.896Z,95258.63
2023-04-07T00:17:45.557Z,95254.91
2023-04-07T00:20:12.464Z,95250.28
2023-04-07T00:22:38.986Z,95260.69
2023-04-07T00:25:06.038Z,95265.16
2023-04-07T00:27:32.612Z,95266.03
2023-04-07T00:29:59.122Z,95257.53
2023-04-07T00:32:25.713Z,95259.75
2023-04-07T00:34:52.270Z,95249.34
2023-04-07T00:37:19.343Z,95245.50
2023-04-07T00:39:46.711Z,95247.91
2023-04-07T00:42:13.333Z,95248.00
2023-04-07T00:44:39.886Z,95244.25
2023-04-07T00:47:06.428Z,95246.81
2023-04-07T00:49:33.057Z,95246.25
2023-04-07T00:52:00.887Z,95239.88
2023-04-07T00:54:27.462Z,95234.34
2023-04-07T00:56:54.100Z,95235.97
2023-04-07T00:59:22.002Z,95239.28
2023-04-07T01:02:01.510Z,95235.31
2023-04-07T01:04:40.604Z,95229.03
2023-04-07T01:07:15.525Z,95229.03
2023-04-07T01:09:54.217Z,95227.75
2023-04-07T01:12:33.382Z,95223.66
2023-04-07T01:15:05.296Z,95231.28
2023-04-07T01:17:47.964Z,95217.59
2023-04-07T01:20:19.504Z,95218.13
2023-04-07T01:22:53.254Z,95219.41
2023-04-07T01:25:46.972Z,95217.00
2023-04-07T01:28:38.350Z,95216.88
2023-04-07T01:31:07.038Z,95222.56
2023-04-07T01:33:36.589Z,95219.78
2023-04-07T01:36:06.694Z,95205.31
2023-04-07T01:38:33.877Z,95219.06
2023-04-07T01:41:01.694Z,95210.47
2023-04-07T01:43:29.643Z,95208.47
2023-04-07T01:45:57.627Z,95214.97
2023-04-07T01:48:25.893Z,95212.19
2023-04-07T01:50:53.452Z,95209.16
2023-04-07T01:53:20.677Z,95207.78
2023-04-07T01:55:47.254Z,95211.53
2023-04-07T01:58:13.767Z,95212.41
2023-04-07T02:00:42.491Z,95202.47
2023-04-07T02:03:21.042Z,95201.59
2023-04-07T02:05:50.325Z,95203.50
2023-04-07T02:08:19.903Z,95206.59
2023-04-07T02:10:48.528Z,95210.22
2023-04-07T02:13:18.883Z,95204.50
2023-04-07T02:15:48.403Z,95205.91
2023-04-07T02:18:19.566Z,95211.53
2023-04-07T02:20:48.139Z,95204.03
2023-04-07T02:23:14.724Z,95201.28
2023-04-07T02:25:41.580Z,95200.22
2023-04-07T02:28:08.219Z,95194.63
2023-04-07T02:30:35.617Z,95196.84
2023-04-07T02:33:02.443Z,95202.91
2023-04-07T02:35:29.108Z,95196.13
2023-04-07T02:37:55.794Z,95204.66
2023-04-07T02:40:22.388Z,95200.00
2023-04-07T02:42:48.992Z,95220.03
2023-04-07T02:45:15.992Z,95206.59
2023-04-07T02:47:42.692Z,95209.91
2023-04-07T02:50:09.833Z,95199.94
2023-04-07T02:52:36.480Z,95203.19
2023-04-07T02:55:09.501Z,95196.38
2023-04-07T02:57:36.105Z,95192.09
2023-04-07T03:00:06.093Z,95191.47
2023-04-07T03:02:50.216Z,95194.63
2023-04-07T03:05:17.759Z,95200.44
2023-04-07T03:07:44.379Z,95191.31
2023-04-07T03:10:11.459Z,95199.25
2023-04-07T03:12:38.512Z,95193.72
2023-04-07T03:15:05.430Z,95189.06
2023-04-07T03:17:33.206Z,95183.03
2023-04-07T03:19:59.741Z,95186.72
2023-04-07T03:22:26.881Z,95188.84
2023-04-07T03:24:54.175Z,95179.09
2023-04-07T03:27:23.256Z,95181.19
2023-04-07T03:29:51.179Z,95179.75
2023-04-07T03:32:17.849Z,95171.72
2023-04-07T03:34:44.663Z,95178.94
2023-04-07T03:37:13.025Z,95179.56
2023-04-07T03:39:41.041Z,95169.97
2023-04-07T03:42:20.976Z,95175.22
2023-04-07T03:44:48.885Z,95166.00
2023-04-07T03:47:15.432Z,95171.91
2023-04-07T03:49:42.081Z,95162.19
2023-04-07T03:52:08.952Z,95161.50
2023-04-07T03:54:36.452Z,95167.91
2023-04-07T03:57:03.265Z,95168.69
2023-04-07T03:59:33.080Z,95158.72
2023-04-07T04:02:03.398Z,95156.81
2023-04-07T04:04:30.557Z,95167.28
2023-04-07T04:06:57.955Z,95157.28
2023-04-07T04:09:53.942Z,95162.31
2023-04-07T04:12:21.255Z,95156.31
2023-04-07T04:15:03.389Z,95157.41
2023-04-07T04:17:31.356Z,95156.25
2023-04-07T04:19:57.992Z,95159.72
2023-04-07T04:22:38.312Z,95165.78
2023-04-07T04:25:05.029Z,95162.28
2023-04-07T04:27:31.777Z,95160.06
2023-04-07T04:30:21.628Z,95164.50
2023-04-07T04:32:55.454Z,95164.44
2023-04-07T04:35:29.635Z,95157.34
2023-04-07T04:38:07.249Z,95155.31
2023-04-07T04:40:34.621Z,95154.88
2023-04-07T04:43:01.709Z,95164.91
2023-04-07T04:45:29.323Z,95156.53
2023-04-07T04:47:56.263Z,95151.06
2023-04-07T04:50:22.829Z,95146.56
2023-04-07T04:52:50.206Z,95147.03
2023-04-07T04:55:21.250Z,95160.53
2023-04-07T04:57:48.682Z,95155.63
2023-04-07T05:00:21.501Z,95150.03
2023-04-07T05:02:52.051Z,95144.34
2023-04-07T05:05:18.789Z,95143.84
2023-04-07T05:07:45.567Z,95147.72
2023-04-07T05:10:14.463Z,95143.88
2023-04-07T05:12:46.997Z,95140.53
2023-04-07T05:15:15.150Z,95143.03
2023-04-07T05:17:42.903Z,95143.47
2023-04-07T05:20:12.375Z,95135.97
2023-04-07T05:22:41.312Z,95132.59
2023-04-07T05:25:11.487Z,95135.75
2023-04-07T05:27:39.315Z,95137.38
2023-04-07T05:30:11.272Z,95138.19
2023-04-07T05:32:39.153Z,95133.97
2023-04-07T05:35:13.778Z,95136.28
2023-04-07T05:37:48.114Z,95137.31
2023-04-07T05:40:15.429Z,95140.63
2023-04-07T05:42:42.393Z,95142.53
2023-04-07T05:45:10.282Z,95143.53
2023-04-07T05:47:40.483Z,95142.31
2023-04-07T05:50:08.919Z,95134.09
2023-04-07T05:52:36.230Z,95134.53
2023-04-07T05:55:14.493Z,95134.22
2023-04-07T05:57:41.979Z,95128.56
2023-04-07T06:00:10.734Z,95126.16
2023-04-07T06:02:41.294Z,95132.38
2023-04-07T06:05:13.269Z,95129.59
2023-04-07T06:07:40.653Z,95126.34
2023-04-07T06:10:08.663Z,95123.47
2023-04-07T06:12:35.392Z,95124.38
2023-04-07T06:15:02.105Z,95115.81
2023-04-07T06:17:28.705Z,95120.09
2023-04-07T06:19:55.507Z,95115.03
2023-04-07T06:22:22.049Z,95106.19
2023-04-07T06:24:48.568Z,95100.13
2023-04-07T06:27:16.319Z,95107.34
2023-04-07T06:29:42.912Z,95101.97
2023-04-07T06:32:09.653Z,95103.94
2023-04-07T06:34:36.268Z,95097.72
2023-04-07T06:37:03.696Z,95092.81
2023-04-07T06:39:30.291Z,95099.34
2023-04-07T06:41:57.680Z,95093.94
2023-04-07T06:44:24.223Z,95090.00
2023-04-07T06:46:53.198Z,95095.25
2023-04-07T06:49:20.028Z,95095.06
2023-04-07T06:51:46.728Z,95096.06
2023-04-07T06:54:14.045Z,95091.47
2023-04-07T06:56:43.067Z,95092.09
2023-04-07T06:59:10.303Z,95087.66
2023-04-07T07:01:37.801Z,95094.53
2023-04-07T07:04:06.315Z,95092.72
2023-04-07T07:06:33.051Z,95097.34
2023-04-07T07:09:00.731Z,95092.22
2023-04-07T07:11:27.246Z,95090.59
2023-04-07T07:13:53.764Z,95093.25
2023-04-07T07:16:20.415Z,95091.56
2023-04-07T07:18:47.024Z,95091.44
2023-04-07T07:21:13.549Z,95090.41
2023-04-07T07:23:40.280Z,95099.25
2023-04-07T07:26:06.816Z,95093.03
2023-04-07T07:28:33.496Z,95100.34
2023-04-07T07:31:00.254Z,95088.00
2023-04-07T07:33:26.792Z,95102.38
2023-04-07T07:35:53.388Z,95099.19
2023-04-07T07:38:20.062Z,95100.72
2023-04-07T07:40:47.291Z,95096.34
2023-04-07T07:43:13.812Z,95096.13
2023-04-07T07:45:40.767Z,95105.25
2023-04-07T07:48:07.318Z,95097.19
2023-04-07T07:50:33.900Z,95104.75
2023-04-07T07:53:00.437Z,95104.00
2023-04-07T07:55:27.067Z,95102.75
2023-04-07T07:57:53.578Z,95101.88
2023-04-07T08:00:20.259Z,95100.44
2023-04-07T08:02:46.843Z,95094.28
2023-04-07T08:05:13.457Z,95088.91
2023-04-07T08:07:40.079Z,95088.88
2023-04-07T08:10:06.938Z,95087.41
2023-04-07T08:12:33.466Z,95086.66
2023-04-07T08:15:00.273Z,95081.41
2023-04-07T08:17:26.856Z,95088.13
2023-04-07T08:19:53.415Z,95091.94
2023-04-07T08:22:21.090Z,95083.44
2023-04-07T08:24:47.701Z,95083.84
2023-04-07T08:27:14.220Z,95084.59
2023-04-07T08:29:40.981Z,95080.19
2023-04-07T08:32:07.499Z,95084.97
2023-04-07T08:34:34.225Z,95078.91
2023-04-07T08:37:00.735Z,95075.25
2023-04-07T08:39:28.106Z,95074.38
2023-04-07T08:41:55.364Z,95072.81
2023-04-07T08:44:23.462Z,95071.16
2023-04-07T08:46:51.740Z,95079.63
2023-04-07T08:49:18.721Z,95081.84
2023-04-07T08:51:47.454Z,95075.47
2023-04-07T08:54:22.573Z,95072.59
2023-04-07T08:56:49.214Z,95071.84
2023-04-07T08:59:18.528Z,95075.72
2023-04-07T09:01:47.242Z,95071.69
2023-04-07T09:04:14.212Z,95071.03
2023-04-07T09:06:40.822Z,95074.81
2023-04-07T09:09:07.433Z,95065.84
2023-04-07T09:11:41.023Z,95061.06
2023-04-07T09:14:07.634Z,95075.44
2023-04-07T09:16:34.898Z,95054.13
2023-04-07T09:19:01.440Z,95061.38
2023-04-07T09:21:47.747Z,95059.91
2023-04-07T09:24:24.236Z,95053.19
2023-04-07T09:26:51.180Z,95056.38
2023-04-07T09:29:21.556Z,95050.81
2023-04-07T09:31:51.689Z,95053.63
2023-04-07T09:34:33.351Z,95047.94
2023-04-07T09:37:00.470Z,95048.78
2023-04-07T09:39:27.262Z,95048.69
2023-04-07T09:41:54.251Z,95054.88
2023-04-07T09:44:21.961Z,95047.59
2023-04-07T09:46:56.724Z,95044.84
2023-04-07T09:49:24.658Z,95042.59
2023-04-07T09:52:00.767Z,95039.53
2023-04-07T09:54:37.417Z,95036.91
2023-04-07T09:57:06.055Z,95044.25
2023-04-07T09:59:35.565Z,95040.81
2023-04-07T10:02:03.170Z,95034.47
2023-04-07T10:04:29.899Z,95031.00
2023-04-07T10:06:58.625Z,95031.41
2023-04-07T10:09:27.396Z,95031.38
2023-04-07T10:11:57.213Z,95033.41
2023-04-07T10:14:30.969Z,95035.28
2023-04-07T10:17:00.278Z,95034.69
2023-04-07T10:19:31.454Z,95029.56
2023-04-07T10:21:59.720Z,95036.09
2023-04-07T10:24:46.941Z,95032.63
2023-04-07T10:27:17.853Z,95036.69
2023-04-07T10:29:48.953Z,95031.56
2023-04-07T10:32:15.804Z,95034.88
2023-04-07T10:34:51.158Z,95031.19
2023-04-07T10:37:21.190Z,95027.06
2023-04-07T10:40:11.902Z,95035.38
2023-04-07T10:42:41.239Z,95030.25
2023-04-07T10:45:10.935Z,95024.47
2023-04-07T10:48:02.669Z,95025.13
2023-04-07T10:50:29.539Z,95043.16
2023-04-07T10:53:08.616Z,95033.84
2023-04-07T10:55:39.062Z,95033.31
2023-04-07T10:58:24.619Z,95037.47
2023-04-07T11:00:57.523Z,95035.63
2023-04-07T11:03:25.197Z,95029.81
2023-04-07T11:05:51.879Z,95035.50
2023-04-07T11:08:45.172Z,95028.16
2023-04-07T11:11:16.045Z,95021.09
2023-04-07T11:13:49.856Z,95018.59
2023-04-07T11:16:18.867Z,95017.88
2023-04-07T11:18:47.676Z,95014.63
2023-04-07T11:21:18.599Z,95013.47
2023-04-07T11:23:46.936Z,95017.34
2023-04-07T11:26:14.794Z,95010.03
2023-04-07T11:28:54.359Z,95004.88
2023-04-07T11:31:28.813Z,95001.41
2023-04-07T11:33:57.206Z,95006.56
2023-04-07T11:36:34.188Z,95004.38
2023-04-07T11:39:02.308Z,94993.88
2023-04-07T11:41:31.571Z,95006.75
2023-04-07T11:44:09.564Z,94998.66
2023-04-07T11:46:36.897Z,95004.19
2023-04-07T11:49:14.632Z,95005.53
2023-04-07T11:51:43.998Z,95008.63
2023-04-07T11:54:11.127Z,95008.56
2023-04-07T11:56:47.628Z,95000.47
2023-04-07T11:59:23.046Z,95008.34
2023-04-07T12:01:51.551Z,95004.53
2023-04-07T12:04:18.722Z,94990.41
2023-04-07T12:06:47.270Z,94997.00
2023-04-07T12:09:37.835Z,94993.84
2023-04-07T12:12:07.545Z,94998.09
2023-04-07T12:14:35.213Z,95002.03
2023-04-07T12:17:03.440Z,94992.09
2023-04-07T12:19:35.639Z,94991.91
2023-04-07T12:22:02.426Z,94995.25
2023-04-07T12:24:28.928Z,94999.41
2023-04-07T12:26:56.108Z,94996.44
2023-04-07T12:29:22.860Z,94999.41
2023-04-07T12:31:51.048Z,95008.00
2023-04-07T12:34:18.432Z,95012.25
2023-04-07T12:36:45.019Z,95012.50
2023-04-07T12:39:11.650Z,95009.19
2023-04-07T12:41:38.769Z,95008.41
2023-04-07T12:44:05.938Z,95007.72
2023-04-07T12:46:32.653Z,95011.13
2023-04-07T12:48:59.434Z,95010.91
2023-04-07T12:51:26.247Z,95006.63
2023-04-07T12:53:54.174Z,95001.97
2023-04-07T12:56:22.301Z,95004.47
2023-04-07T12:58:48.865Z,95003.91
2023-04-07T13:01:16.489Z,95001.00
2023-04-07T13:03:43.441Z,95004.88
2023-04-07T13:06:10.843Z,95007.47
2023-04-07T13:08:37.905Z,95002.53
2023-04-07T13:11:04.637Z,95005.50
2023-04-07T13:13:31.756Z,95003.06
2023-04-07T13:15:58.465Z,95004.31
2023-04-07T13:18:25.294Z,95004.09
2023-04-07T13:21:06.295Z,95000.00
2023-04-07T13:23:43.215Z,95008.38
2023-04-07T13:26:10.138Z,95002.69
2023-04-07T13:28:36.668Z,94994.03
2023-04-07T13:31:03.380Z,95000.31
2023-04-07T13:33:29.926Z,95001.06
2023-04-07T13:35:56.896Z,94994.03
2023-04-07T13:38:23.442Z,94994.00
2023-04-07T13:40:50.220Z,94990.00
2023-04-07T13:43:18.485Z,94998.09
2023-04-07T13:45:45.100Z,94995.94
2023-04-07T13:48:11.800Z,94992.28
2023-04-07T13:50:38.481Z,94995.94
2023-04-07T13:53:05.042Z,94997.66
2023-04-07T13:55:31.570Z,94992.06
2023-04-07T13:57:58.159Z,94995.13
2023-04-07T14:00:24.733Z,95004.34
2023-04-07T14:02:51.326Z,94996.25
2023-04-07T14:05:17.945Z,95000.28
2023-04-07T14:07:44.476Z,94998.16
2023-04-07T14:10:11.091Z,94990.03
2023-04-07T14:12:37.998Z,94998.34
2023-04-07T14:15:05.523Z,95000.41
2023-04-07T14:17:32.087Z,95001.88
2023-04-07T14:19:58.615Z,94999.19
2023-04-07T14:22:25.170Z,95002.06
2023-04-07T14:24:51.936Z,95002.88
2023-04-07T14:27:20.991Z,94999.59
2023-04-07T14:29:50.916Z,95000.81
2023-04-07T14:32:17.504Z,95004.41
2023-04-07T14:34:44.175Z,95002.78
2023-04-07T14:37:11.756Z,94995.59
2023-04-07T14:39:39.529Z,95000.31
2023-04-07T14:42:07.438Z,94998.28
2023-04-07T14:44:33.983Z,95008.66
2023-04-07T14:47:00.530Z,95005.03
2023-04-07T14:49:28.359Z,95008.44
2023-04-07T14:51:54.875Z,95005.44
2023-04-07T14:54:21.601Z,95007.34
2023-04-07T14:56:48.226Z,95005.00
2023-04-07T14:59:14.763Z,95009.72
2023-04-07T15:01:41.404Z,95005.28
2023-04-07T15:04:08.137Z,95012.50
2023-04-07T15:06:34.708Z,95013.50
2023-04-07T15:09:01.262Z,95010.72
2023-04-07T15:11:27.815Z,95004.88
2023-04-07T15:13:54.439Z,95015.44
2023-04-07T15:16:21.056Z,95013.25
2023-04-07T15:18:48.441Z,95017.16
2023-04-07T15:21:15.670Z,95015.78
2023-04-07T15:23:42.864Z,95019.38
2023-04-07T15:26:10.093Z,95012.34
2023-04-07T15:28:36.818Z,95019.09
2023-04-07T15:31:03.695Z,95019.25
2023-04-07T15:33:30.342Z,95022.06
2023-04-07T15:35:57.169Z,95023.88
2023-04-07T15:38:23.712Z,95029.00
2023-04-07T15:40:50.305Z,95020.03
2023-04-07T15:43:16.920Z,95022.13
2023-04-07T15:45:44.720Z,95024.81
2023-04-07T15:48:11.954Z,95022.41
2023-04-07T15:50:38.497Z,95024.38
2023-04-07T15:53:05.760Z,95019.09
2023-04-07T15:55:33.288Z,95026.63
2023-04-07T15:58:00.491Z,95027.16
2023-04-07T16:00:27.990Z,95037.13
2023-04-07T16:02:55.621Z,95032.97
2023-04-07T16:05:22.300Z,95032.22
2023-04-07T16:07:49.034Z,95036.84
2023-04-07T16:10:19.636Z,95038.53
2023-04-07T16:12:47.149Z,95039.22
2023-04-07T16:15:16.761Z,95034.03
2023-04-07T16:17:48.332Z,95039.63
2023-04-07T16:20:15.780Z,95040.16
2023-04-07T16:22:44.208Z,95040.13
2023-04-07T16:25:10.787Z,95039.63
2023-04-07T16:27:37.388Z,95040.75
2023-04-07T16:30:08.159Z,95044.41
2023-04-07T16:32:35.383Z,95042.84
2023-04-07T16:35:02.508Z,95050.53
2023-04-07T16:37:30.226Z,95053.03
2023-04-07T16:39:57.799Z,95053.28
2023-04-07T16:42:26.383Z,95052.88
2023-04-07T16:44:52.940Z,95052.13
2023-04-07T16:47:19.613Z,95052.63
2023-04-07T16:49:46.254Z,95061.25
2023-04-07T16:52:12.801Z,95066.78
2023-04-07T16:54:39.297Z,95065.31
2023-04-07T16:57:05.830Z,95067.56
2023-04-07T16:59:32.331Z,95064.59
2023-04-07T17:01:58.950Z,95069.34
2023-04-07T17:04:25.607Z,95070.66
2023-04-07T17:06:52.178Z,95079.13
2023-04-07T17:09:19.832Z,95077.28
2023-04-07T17:11:46.356Z,95078.38
2023-04-07T17:14:12.889Z,95078.56
2023-04-07T17:16:39.441Z,95087.53
2023-04-07T17:19:06.209Z,95088.94
2023-04-07T17:21:32.708Z,95086.19
2023-04-07T17:23:59.242Z,95093.53
2023-04-07T17:26:26.293Z,95090.28
2023-04-07T17:28:52.866Z,95099.81
2023-04-07T17:31:19.426Z,95093.38
2023-04-07T17:33:47.627Z,95099.00
2023-04-07T17:36:14.429Z,95106.25
2023-04-07T17:38:40.988Z,95100.19
2023-04-07T17:41:07.528Z,95107.72
2023-04-07T17:43:34.146Z,95108.09
2023-04-07T17:46:00.792Z,95113.28
2023-04-07T17:48:27.645Z,95116.84
2023-04-07T17:50:54.167Z,95114.78
2023-04-07T17:53:21.029Z,95120.13
2023-04-07T17:55:47.547Z,95125.31
2023-04-07T17:58:14.467Z,95136.47
2023-04-07T18:00:41.288Z,95130.75
2023-04-07T18:03:08.245Z,95134.69
2023-04-07T18:05:36.307Z,95134.69
2023-04-07T18:08:02.897Z,95138.28
2023-04-07T18:10:29.601Z,95137.19
2023-04-07T18:12:56.141Z,95142.31
2023-04-07T18:15:22.755Z,95145.94
2023-04-07T18:17:52.942Z,95154.75
2023-04-07T18:20:21.004Z,95152.19
2023-04-07T18:22:50.139Z,95151.09
2023-04-07T18:25:16.969Z,95161.41
2023-04-07T18:27:43.584Z,95148.91
2023-04-07T18:30:10.532Z,95162.38
2023-04-07T18:32:37.132Z,95163.22
2023-04-07T18:35:03.866Z,95164.38
2023-04-07T18:37:30.459Z,95166.66
2023-04-07T18:39:57.016Z,95167.94
2023-04-07T18:42:23.660Z,95174.56
2023-04-07T18:44:50.225Z,95168.31
2023-04-07T18:47:17.176Z,95180.47
2023-04-07T18:49:43.703Z,95183.34
2023-04-07T18:52:10.568Z,95181.50
2023-04-07T18:54:37.072Z,95185.16
2023-04-07T18:57:04.505Z,95189.34
2023-04-07T18:59:31.396Z,95191.34
2023-04-07T19:01:58.055Z,95200.75
2023-04-07T19:04:24.892Z,95194.78
2023-04-07T19:06:52.308Z,95202.22
2023-04-07T19:09:18.881Z,95205.22
2023-04-07T19:11:45.610Z,95207.03
2023-04-07T19:14:12.657Z,95210.38
2023-04-07T19:16:39.752Z,95209.09
2023-04-07T19:19:06.286Z,95213.81
2023-04-07T19:21:32.849Z,95219.19
2023-04-07T19:23:59.759Z,95218.69
2023-04-07T19:26:27.767Z,95219.25
2023-04-07T19:28:55.869Z,95210.03
2023-04-07T19:31:23.086Z,95213.09
2023-04-07T19:33:49.840Z,95215.84
2023-04-07T19:36:16.713Z,95228.19
2023-04-07T19:38:43.307Z,95224.66
2023-04-07T19:41:10.303Z,95228.19
2023-04-07T19:43:36.807Z,95233.97
2023-04-07T19:46:03.712Z,95238.97
2023-04-07T19:48:30.545Z,95235.03
2023-04-07T19:50:57.176Z,95244.84
2023-04-07T19:53:25.309Z,95240.53
2023-04-07T19:55:52.065Z,95243.06
2023-04-07T19:58:20.913Z,95243.34
2023-04-07T20:00:50.547Z,95235.31
2023-04-07T20:03:17.562Z,95249.88
2023-04-07T20:05:44.511Z,95245.25
2023-04-07T20:08:11.409Z,95247.72
2023-04-07T20:10:37.903Z,95244.97
2023-04-07T20:13:06.408Z,95239.34
2023-04-07T20:15:33.062Z,95246.91
2023-04-07T20:18:00.129Z,95241.50
2023-04-07T20:20:26.770Z,95245.59
2023-04-07T20:22:53.346Z,95252.84
2023-04-07T20:25:19.979Z,95245.31
2023-04-07T20:27:48.989Z,95250.13
2023-04-07T20:30:16.255Z,95249.63
2023-04-07T20:32:43.430Z,95244.09
2023-04-07T20:35:11.898Z,95250.91
2023-04-07T20:37:38.600Z,95236.56
2023-04-07T20:40:06.238Z,95251.91
2023-04-07T20:42:32.829Z,95254.06
2023-04-07T20:45:03.652Z,95253.94
2023-04-07T20:47:31.373Z,95256.63
2023-04-07T20:49:58.598Z,95250.19
2023-04-07T20:52:27.033Z,95257.06
2023-04-07T20:54:53.560Z,95254.78
2023-04-07T20:57:20.140Z,95253.00
2023-04-07T20:59:46.647Z,95250.38
2023-04-07T21:02:13.345Z,95260.59
2023-04-07T21:04:40.005Z,95262.47
2023-04-07T21:07:06.532Z,95264.28
2023-04-07T21:09:33.057Z,95255.06
2023-04-07T21:12:02.010Z,95254.44
2023-04-07T21:14:28.624Z,95258.13
2023-04-07T21:16:55.189Z,95254.50
2023-04-07T21:19:22.159Z,95258.28
2023-04-07T21:21:48.696Z,95255.84
2023-04-07T21:24:15.301Z,95254.19
2023-04-07T21:26:41.831Z,95256.38
2023-04-07T21:29:08.369Z,95260.31
2023-04-07T21:31:35.065Z,95266.38
2023-04-07T21:34:01.811Z,95266.38
2023-04-07T21:36:28.528Z,95268.69
2023-04-07T21:38:55.171Z,95270.63
2023-04-07T21:41:21.887Z,95275.03
2023-04-07T21:43:48.436Z,95269.97
2023-04-07T21:46:16.566Z,95278.81
2023-04-07T21:48:43.156Z,95269.97
2023-04-07T21:51:09.712Z,95274.72
2023-04-07T21:53:36.453Z,95269.28
2023-04-07T21:56:03.326Z,95270.59
2023-04-07T21:58:29.924Z,95269.75
2023-04-07T22:00:56.559Z,95272.88
2023-04-07T22:03:23.583Z,95275.16
2023-04-07T22:05:50.417Z,95272.69
2023-04-07T22:08:17.386Z,95268.22
2023-04-07T22:10:43.975Z,95269.16
2023-04-07T22:13:10.576Z,95266.56
2023-04-07T22:15:37.131Z,95280.47
2023-04-07T22:18:03.755Z,95278.28
2023-04-07T22:20:30.342Z,95276.06
2023-04-07T22:22:57.481Z,95280.34
2023-04-07T22:25:24.905Z,95281.28
2023-04-07T22:27:52.507Z,95282.78
2023-04-07T22:30:19.984Z,95278.31
2023-04-07T22:32:47.927Z,95278.56
2023-04-07T22:35:14.559Z,95276.19
2023-04-07T22:37:41.152Z,95283.75
2023-04-07T22:40:08.932Z,95277.81
2023-04-07T22:42:35.915Z,95284.00
2023-04-07T22:45:02.509Z,95288.25
2023-04-07T22:47:29.048Z,95290.03
2023-04-07T22:49:56.380Z,95293.53
2023-04-07T22:52:23.225Z,95288.47
2023-04-07T22:54:49.789Z,95295.44
2023-04-07T22:57:16.454Z,95300.31
2023-04-07T22:59:43.012Z,95295.97
2023-04-07T23:02:09.681Z,95297.38
2023-04-07T23:04:36.410Z,95307.84
2023-04-07T23:07:02.968Z,95306.75
2023-04-07T23:09:29.503Z,95310.03
2023-04-07T23:11:56.961Z,95305.78
2023-04-07T23:14:23.690Z,95304.28
2023-04-07T23:16:51.064Z,95314.53
2023-04-07T23:19:17.735Z,95304.22
2023-04-07T23:21:44.251Z,95309.66
2023-04-07T23:24:11.099Z,95317.66
2023-04-07T23:26:37.669Z,95317.22
2023-04-07T23:29:04.295Z,95314.75
2023-04-07T23:31:31.156Z,95310.66
2023-04-07T23:33:58.911Z,95312.06
2023-04-07T23:36:27.080Z,95314.81
2023-04-07T23:38:55.855Z,95317.31
2023-04-07T23:41:22.828Z,95317.06
2023-04-07T23:43:49.602Z,95322.28
2023-04-07T23:46:16.270Z,95316.63
2023-04-07T23:48:42.863Z,95327.00
2023-04-07T23:51:09.397Z,95314.53
2023-04-07T23:53:35.907Z,95318.91
2023-04-07T23:56:02.541Z,95314.81
2023-04-07T23:58:29.115Z,95320.28
